Dittmer, Missouri
Current Conditions -  °F | °C
As of 11:54 PM on Saturday 20 Dec 2014 (Local Time) from KSUS Reporting Station
Overcast Overcast  
Wind Chill: 41°   Ceiling: 2600
Heat Index: 41°   Visibility: 10mi
Dew Point: 34°   Wind: 3mph
Humidity: 76%   Direction: 160°SSE
Pressure: 30.23"   Gusts: NA
Location:  38.34°N, 90.69°W
Report Text: KSUS 210554Z AUTO 16003KT 10SM OVC026 05/01 A3023 RMK AO2 SLP243 T00500011 10056 20050 400610011 55000
Loading
Personal Weather Stations






























Interactive Weather Map New forecast layout! Learn more

10-Day Weather Forecast

Advertisements
Track Severe Weather on mobile